Time;durP1;ratioP1;P1;durP2;ratioP2;P2;SDS_P1;SDS_P2;PMS_P1;PMS_P2;Temp;Humidity;BMP_temperature;BMP_pressure;BME280_temperature;BME280_humidity;BME280_pressure;Samples;Min_cycle;Max_cycle;Signal;HPM_P1;HPM_P2
2021/09/04 00:02:14;;;;;;;26.33;12.52;;;16.10;99.90;;;16.70;84.17;101328.91;5080142;28;20195;-75
2021/09/04 00:04:40;;;;;;;26.48;12.77;;;16.10;99.90;;;16.68;84.16;101336.94;5088642;28;20254;-75
2021/09/04 00:07:09;;;;;;;29.58;13.43;;;16.10;99.90;;;16.68;84.18;101333.44;5076663;28;20215;-74
2021/09/04 00:09:37;;;;;;;29.35;13.40;;;16.10;99.90;;;16.67;84.09;101332.59;5079531;28;20199;-74
2021/09/04 00:12:06;;;;;;;28.05;13.40;;;16.10;99.90;;;16.62;84.31;101331.97;5088780;28;20207;-74
2021/09/04 00:14:35;;;;;;;28.77;13.85;;;16.10;99.90;;;16.61;84.66;101327.59;5082474;28;20679;-75
2021/09/04 00:17:04;;;;;;;32.30;13.23;;;16.00;99.90;;;16.59;84.32;101332.13;5087314;28;20262;-73
2021/09/04 00:19:31;;;;;;;28.25;13.60;;;16.00;99.90;;;16.57;84.43;101328.72;5088342;28;20183;-74
2021/09/04 00:21:58;;;;;;;27.98;13.73;;;16.00;99.90;;;16.54;84.57;101335.94;5084872;28;20218;-75
2021/09/04 00:24:25;;;;;;;26.15;12.82;;;16.00;99.90;;;16.48;84.69;101325.72;5091836;28;20195;-72
2021/09/04 00:26:53;;;;;;;29.23;14.23;;;15.90;99.90;;;16.45;85.00;101324.03;5087807;28;20208;-75
2021/09/04 00:29:20;;;;;;;30.90;14.48;;;15.90;99.90;;;16.42;85.50;101331.25;5078196;28;20279;-73
2021/09/04 00:31:48;;;;;;;31.02;13.98;;;15.90;99.90;;;16.37;85.53;101330.63;5088303;28;20703;-74
2021/09/04 00:34:15;;;;;;;31.48;14.55;;;15.80;99.90;;;16.31;85.40;101326.50;5083248;28;20196;-74
2021/09/04 00:36:42;;;;;;;30.30;13.93;;;15.80;99.90;;;16.28;85.47;101327.53;5082809;28;20683;-75
2021/09/04 00:39:09;;;;;;;30.60;13.75;;;15.80;99.90;;;16.25;85.45;101324.19;5087837;28;20666;-75
2021/09/04 00:41:36;;;;;;;27.33;13.68;;;15.70;99.90;;;16.21;85.91;101322.63;5090516;28;20207;-74
2021/09/04 00:44:05;;;;;;;31.40;14.55;;;15.70;99.90;;;16.22;85.78;101327.00;5089694;28;20956;-75
2021/09/04 00:46:32;;;;;;;28.50;14.32;;;15.70;99.90;;;16.15;85.82;101322.97;5079476;28;20188;-74
2021/09/04 00:49:00;;;;;;;30.48;13.73;;;15.60;99.90;;;16.12;86.15;101333.69;5083076;28;20635;-74
2021/09/04 00:51:27;;;;;;;28.92;13.68;;;15.60;99.90;;;16.08;85.95;101329.47;5081224;28;20222;-74
2021/09/04 00:53:53;;;;;;;32.47;13.90;;;15.60;99.90;;;16.06;86.15;101323.41;5086013;28;20202;-75
2021/09/04 00:56:20;;;;;;;27.85;13.82;;;15.60;99.90;;;16.03;86.13;101321.78;5087250;28;20196;-73
2021/09/04 00:58:49;;;;;;;28.27;13.48;;;15.50;99.90;;;16.01;86.44;101317.50;5101090;28;20192;-73
2021/09/04 01:01:19;;;;;;;29.40;13.52;;;15.50;99.90;;;16.01;86.55;101317.50;5081164;28;20215;-71
2021/09/04 01:03:46;;;;;;;31.33;14.55;;;15.50;99.90;;;16.02;86.57;101313.94;5091367;28;20667;-77
2021/09/04 01:06:15;;;;;;;27.23;13.73;;;15.50;99.90;;;16.01;86.50;101322.78;5081071;28;20286;-73
2021/09/04 01:08:43;;;;;;;32.13;15.15;;;15.50;99.90;;;15.98;86.71;101322.94;5092368;28;20207;-75
2021/09/04 01:11:14;;;;;;;33.85;14.98;;;15.40;99.90;;;15.97;86.47;101326.53;5086016;28;20269;-74
2021/09/04 01:13:43;;;;;;;28.83;13.93;;;15.40;99.90;;;15.94;86.72;101322.25;5086171;28;20211;-73
2021/09/04 01:16:10;;;;;;;31.00;13.85;;;15.40;99.90;;;15.93;86.70;101322.31;5079121;28;20195;-74
2021/09/04 01:18:38;;;;;;;29.60;13.50;;;15.40;99.90;;;15.89;86.84;101323.41;5085689;28;20655;-75
2021/09/04 01:21:09;;;;;;;31.73;14.75;;;15.40;99.90;;;15.89;86.96;101318.16;5092505;28;20207;-75
2021/09/04 01:23:36;;;;;;;32.97;14.68;;;15.30;99.90;;;15.85;87.07;101313.94;5089309;28;20195;-73
2021/09/04 01:26:05;;;;;;;27.95;14.20;;;15.30;99.90;;;15.82;87.22;101316.72;5090025;28;20229;-73
2021/09/04 01:28:33;;;;;;;31.52;13.75;;;15.30;99.90;;;15.79;87.29;101314.25;5082750;28;20217;-73
2021/09/04 01:31:00;;;;;;;31.00;14.68;;;15.20;99.90;;;15.72;87.54;101315.47;5089774;28;20211;-72
2021/09/04 01:33:27;;;;;;;30.92;13.55;;;15.20;99.90;;;15.70;87.60;101315.56;5087292;28;20230;-73
2021/09/04 01:35:54;;;;;;;28.85;13.60;;;15.20;99.90;;;15.68;87.89;101313.91;5092122;28;20240;-73
2021/09/04 01:38:21;;;;;;;29.40;13.77;;;15.20;99.90;;;15.64;87.86;101322.91;5092294;28;20301;-72
2021/09/04 01:40:48;;;;;;;30.95;13.80;;;15.10;99.90;;;15.62;88.11;101319.50;5087571;28;20222;-76
2021/09/04 01:43:17;;;;;;;30.90;13.70;;;15.10;99.90;;;15.61;87.94;101315.13;5082871;28;20184;-73
2021/09/04 01:45:43;;;;;;;30.85;13.95;;;15.10;99.90;;;15.59;87.93;101315.19;5092303;28;20268;-74
2021/09/04 01:48:10;;;;;;;30.52;13.68;;;15.10;99.90;;;15.56;88.29;101315.34;5084529;28;20215;-73
2021/09/04 01:50:37;;;;;;;31.60;13.82;;;15.00;99.90;;;15.55;88.70;101310.16;5087691;28;20219;-73
2021/09/04 01:53:04;;;;;;;33.45;13.88;;;15.00;99.90;;;15.55;88.46;101307.53;5084913;28;20196;-74
2021/09/04 01:55:30;;;;;;;27.73;13.43;;;15.00;99.90;;;15.53;88.61;101309.38;5087735;28;20199;-74
2021/09/04 01:57:57;;;;;;;32.65;14.98;;;15.00;99.90;;;15.55;88.55;101296.97;5084837;28;20445;-74
2021/09/04 02:00:25;;;;;;;30.08;13.30;;;15.00;99.90;;;15.55;88.57;101302.25;5084663;28;20208;-72
2021/09/04 02:02:52;;;;;;;30.58;13.32;;;15.00;99.90;;;15.53;88.76;101304.09;5078600;28;20188;-74
2021/09/04 02:05:19;;;;;;;29.83;14.07;;;15.00;99.90;;;15.53;88.50;101304.09;5089587;28;20246;-73
2021/09/04 02:07:46;;;;;;;29.75;13.32;;;15.00;99.90;;;15.51;88.70;101301.53;5088030;28;20203;-75
2021/09/04 02:10:12;;;;;;;28.90;13.98;;;15.00;99.90;;;15.49;88.72;101292.81;5096715;28;20237;-74
2021/09/04 02:12:39;;;;;;;31.38;14.02;;;15.00;99.90;;;15.50;88.75;101304.25;5087995;28;20192;-74
2021/09/04 02:15:10;;;;;;;28.23;13.27;;;15.00;99.90;;;15.45;88.74;101301.84;5098536;28;20212;-73
2021/09/04 02:17:39;;;;;;;29.58;13.30;;;15.00;99.90;;;15.43;89.18;101294.91;5082523;28;20197;-74
2021/09/04 02:20:08;;;;;;;30.92;14.18;;;15.00;99.90;;;15.41;89.24;101299.41;5092116;28;20571;-74
2021/09/04 02:22:36;;;;;;;28.48;13.88;;;14.90;99.90;;;15.38;89.28;101299.53;5086368;28;20222;-74
2021/09/04 02:25:04;;;;;;;31.80;13.80;;;14.90;99.90;;;15.35;89.18;101297.03;5074266;28;20196;-75
2021/09/04 02:27:33;;;;;;;30.05;12.90;;;14.90;99.90;;;15.35;89.21;101289.13;5103762;28;20792;-74
2021/09/04 02:30:02;;;;;;;26.15;13.00;;;14.90;99.90;;;15.32;89.49;101291.91;5071698;28;20599;-74
2021/09/04 02:32:29;;;;;;;28.05;13.23;;;14.80;99.90;;;15.31;89.67;101293.69;5074780;28;20636;-74
2021/09/04 02:34:59;;;;;;;28.27;12.55;;;14.80;99.90;;;15.28;89.40;101292.97;5078882;28;20187;-73
2021/09/04 02:37:26;;;;;;;30.40;12.95;;;14.80;99.90;;;15.25;89.32;101293.13;5082965;28;20203;-74
2021/09/04 02:39:55;;;;;;;27.90;13.63;;;14.70;99.90;;;15.22;89.64;101294.09;5076086;28;20558;-73
2021/09/04 02:42:22;;;;;;;30.20;14.38;;;14.70;99.90;;;15.24;89.67;101296.69;5075439;28;20192;-75
2021/09/04 02:44:49;;;;;;;29.02;14.00;;;14.70;99.90;;;15.26;89.55;101300.09;5088794;28;20183;-75
2021/09/04 02:47:15;;;;;;;31.48;13.63;;;14.70;99.90;;;15.25;89.42;101298.41;5087298;28;20215;-74
2021/09/04 02:49:43;;;;;;;30.13;13.63;;;14.70;99.90;;;15.22;89.33;101299.38;5080177;28;20242;-74
2021/09/04 02:52:11;;;;;;;32.05;14.35;;;14.70;99.90;;;15.19;89.57;101286.34;5085530;28;20234;-74
2021/09/04 02:54:38;;;;;;;33.45;14.07;;;14.70;99.90;;;15.16;89.45;101299.69;5090430;28;20557;-74
2021/09/04 02:57:05;;;;;;;27.30;12.80;;;14.60;99.90;;;15.14;89.88;101295.44;5085285;28;20279;-73
2021/09/04 02:59:32;;;;;;;30.35;13.98;;;14.60;99.90;;;15.12;89.77;101313.94;5082555;28;20200;-72
2021/09/04 03:02:01;;;;;;;32.17;13.57;;;14.60;99.90;;;15.09;89.71;101307.03;5080662;28;20207;-75
2021/09/04 03:04:28;;;;;;;29.48;13.18;;;14.60;99.90;;;15.08;89.83;101309.75;5089030;28;20195;-76
2021/09/04 03:06:55;;;;;;;30.67;14.23;;;14.60;99.90;;;15.04;89.70;101306.38;5086597;28;20187;-74
2021/09/04 03:09:23;;;;;;;30.90;13.95;;;14.50;99.90;;;15.02;89.81;101297.69;5080424;28;20208;-72
2021/09/04 03:11:50;;;;;;;29.17;14.15;;;14.50;99.90;;;15.01;89.65;101297.75;5082805;28;20218;-73
2021/09/04 03:14:17;;;;;;;29.25;13.60;;;14.50;99.90;;;14.97;89.71;101297.03;5090106;28;20233;-74
2021/09/04 03:16:45;;;;;;;30.70;13.43;;;14.50;99.90;;;14.92;89.80;101301.66;5089284;28;22402;-74
2021/09/04 03:19:15;;;;;;;27.02;13.30;;;14.50;99.90;;;14.88;89.94;101308.03;5075938;28;20211;-74
2021/09/04 03:21:42;;;;;;;30.25;13.70;;;14.40;99.90;;;14.88;89.88;101309.81;5091124;28;20311;-74
2021/09/04 03:24:10;;;;;;;28.88;13.27;;;14.40;99.90;;;14.84;90.11;101308.22;5097631;28;20184;-75
2021/09/04 03:26:38;;;;;;;30.35;13.55;;;14.40;99.90;;;14.82;89.89;101305.66;5107505;28;20180;-74
2021/09/04 03:29:06;;;;;;;32.78;14.20;;;14.30;99.90;;;14.77;90.13;101307.66;5103346;28;20245;-73
2021/09/04 03:31:33;;;;;;;34.03;14.60;;;14.30;99.90;;;14.76;90.24;101308.59;5101117;28;20242;-74
2021/09/04 03:34:00;;;;;;;34.47;14.10;;;14.30;99.90;;;14.76;90.58;101310.34;5109910;28;20206;-72
2021/09/04 03:36:27;;;;;;;31.52;13.98;;;14.30;99.90;;;14.74;90.39;101317.47;5090570;28;20252;-71
2021/09/04 03:38:54;;;;;;;31.27;14.70;;;14.30;99.90;;;14.68;90.32;101318.63;5076920;28;20242;-73
2021/09/04 03:41:20;;;;;;;35.55;14.10;;;14.30;99.90;;;14.67;90.67;101314.25;5088786;28;20210;-72
2021/09/04 03:43:50;;;;;;;33.53;14.38;;;14.20;99.90;;;14.64;90.70;101327.56;5083480;28;20294;-73
2021/09/04 03:46:17;;;;;;;35.05;15.27;;;14.20;99.90;;;14.61;90.85;101321.56;5077270;28;20206;-73
2021/09/04 03:48:44;;;;;;;34.03;14.65;;;14.20;99.90;;;14.60;90.80;101325.97;5090505;28;20207;-73
2021/09/04 03:51:11;;;;;;;36.63;15.48;;;14.20;99.90;;;14.58;91.12;101322.59;5086574;28;20302;-74
2021/09/04 03:53:38;;;;;;;32.60;14.15;;;14.20;99.90;;;14.57;91.20;101320.84;5084724;28;20198;-74
2021/09/04 03:56:05;;;;;;;38.45;16.50;;;14.20;99.90;;;14.58;91.58;101329.63;5100795;28;20196;-74
2021/09/04 03:58:34;;;;;;;32.92;15.55;;;14.20;99.90;;;14.59;91.50;101329.56;5100746;28;20187;-75
2021/09/04 04:01:02;;;;;;;34.00;15.05;;;14.20;99.90;;;14.57;91.54;101323.50;5106847;28;20203;-72
2021/09/04 04:03:29;;;;;;;31.83;14.20;;;14.20;99.90;;;14.58;91.80;101325.22;5109295;28;20252;-74
2021/09/04 04:05:57;;;;;;;30.10;13.45;;;14.20;99.90;;;14.56;91.53;101332.31;5107706;28;20715;-72
2021/09/04 04:08:24;;;;;;;28.80;13.30;;;14.10;99.90;;;14.49;91.47;101327.38;5106003;28;20281;-75
2021/09/04 04:10:51;;;;;;;28.35;12.82;;;14.10;99.90;;;14.46;92.03;101323.13;5107116;28;20723;-73
2021/09/04 04:13:18;;;;;;;29.30;13.30;;;14.10;99.90;;;14.41;91.91;101327.72;5093735;28;20188;-72
2021/09/04 04:15:45;;;;;;;27.83;13.20;;;14.00;99.90;;;14.38;92.13;101330.50;5092310;28;20671;-75
2021/09/04 04:18:14;;;;;;;29.70;13.23;;;14.00;99.90;;;14.38;92.22;101335.75;5092195;28;20253;-73
2021/09/04 04:20:42;;;;;;;28.42;13.05;;;14.00;99.90;;;14.38;92.27;101332.25;5090750;28;20212;-74
2021/09/04 04:23:09;;;;;;;28.10;12.90;;;14.00;99.90;;;14.37;92.38;101333.16;5076477;28;20257;-72
2021/09/04 04:25:36;;;;;;;29.85;13.02;;;14.00;99.90;;;14.37;92.47;101333.16;5093407;28;20256;-75
2021/09/04 04:28:03;;;;;;;29.52;12.85;;;14.00;99.90;;;14.36;92.30;101337.59;5090123;28;20199;-76
2021/09/04 04:30:30;;;;;;;28.10;13.20;;;14.00;99.90;;;14.34;92.28;101344.69;5091987;28;20203;-75
2021/09/04 04:32:57;;;;;;;29.33;13.30;;;13.90;99.90;;;14.36;92.29;101342.88;5082635;28;20318;-75
2021/09/04 04:35:25;;;;;;;30.55;13.88;;;14.00;99.90;;;14.33;92.43;101343.00;5084360;28;20200;-73
2021/09/04 04:37:52;;;;;;;29.38;12.73;;;14.00;99.90;;;14.32;92.41;101346.53;5092117;28;20276;-75
2021/09/04 04:40:23;;;;;;;28.88;13.27;;;13.90;99.90;;;14.34;92.44;101351.75;5093055;28;20207;-74
2021/09/04 04:42:49;;;;;;;28.65;13.10;;;14.00;99.90;;;14.33;92.51;101356.19;5089356;28;20211;-74
2021/09/04 04:45:16;;;;;;;26.73;12.32;;;14.00;99.90;;;14.34;92.41;101360.50;5082138;28;20227;-71
2021/09/04 04:47:45;;;;;;;28.02;13.38;;;14.00;99.90;;;14.36;92.73;101369.19;5089046;28;20202;-75
2021/09/04 04:50:12;;;;;;;26.27;12.98;;;14.00;99.90;;;14.36;92.48;101363.06;5086847;28;20211;-75
2021/09/04 04:52:41;;;;;;;25.80;11.75;;;14.00;99.90;;;14.32;92.11;101364.97;5090470;28;20227;-74
2021/09/04 04:55:09;;;;;;;25.55;12.00;;;14.00;99.90;;;14.32;92.66;101364.09;5077892;28;20223;-75
2021/09/04 04:57:36;;;;;;;26.30;11.95;;;13.90;99.90;;;14.32;92.44;101362.34;5089142;28;20222;-74
2021/09/04 05:00:07;;;;;;;25.58;11.43;;;13.90;99.90;;;14.31;92.50;101365.91;5083215;28;20217;-74
2021/09/04 05:02:34;;;;;;;28.63;12.45;;;14.00;99.90;;;14.30;92.60;101364.19;5091002;28;20290;-74
2021/09/04 05:05:01;;;;;;;31.83;12.50;;;14.00;99.90;;;14.35;92.39;101364.84;5092567;28;20271;-75
2021/09/04 05:07:28;;;;;;;30.65;12.73;;;14.00;99.90;;;14.36;92.34;101370.97;5091427;28;20690;-72
2021/09/04 05:09:56;;;;;;;31.85;13.00;;;14.00;99.90;;;14.36;92.32;101373.59;5089998;28;20204;-74
2021/09/04 05:12:24;;;;;;;28.00;12.68;;;14.00;99.90;;;14.33;92.28;101374.59;5079499;28;20596;-74
2021/09/04 05:14:51;;;;;;;30.52;12.60;;;14.00;99.90;;;14.33;92.32;101366.72;5080706;28;20214;-74
2021/09/04 05:17:18;;;;;;;29.15;12.50;;;14.00;99.90;;;14.31;92.60;101365.03;5092452;28;20191;-74
2021/09/04 05:19:45;;;;;;;28.13;11.77;;;14.00;99.90;;;14.26;92.39;101361.75;5092989;28;20230;-74
2021/09/04 05:22:13;;;;;;;29.08;13.15;;;13.90;99.90;;;14.22;92.65;101365.38;5093692;28;20200;-74
2021/09/04 05:24:40;;;;;;;30.63;13.25;;;13.90;99.90;;;14.20;92.75;101365.44;5097072;28;20262;-74
2021/09/04 05:27:08;;;;;;;28.77;12.52;;;13.90;99.90;;;14.17;93.04;101370.00;5099972;28;20187;-74
2021/09/04 05:29:36;;;;;;;28.30;12.23;;;13.80;99.90;;;14.17;93.04;101362.97;5102777;28;20188;-73
2021/09/04 05:32:03;;;;;;;30.88;11.63;;;13.80;99.90;;;14.18;93.24;101364.69;5087206;28;20226;-74
2021/09/04 05:34:30;;;;;;;26.23;11.45;;;13.90;99.90;;;14.19;93.20;101366.38;5083654;28;20580;-72
2021/09/04 05:36:57;;;;;;;25.90;11.52;;;13.90;99.90;;;14.25;93.64;101366.16;5085946;28;20237;-74
2021/09/04 05:39:23;;;;;;;27.85;11.15;;;13.90;99.90;;;14.28;93.17;101371.31;5091244;28;20188;-74
2021/09/04 05:41:50;;;;;;;21.98;10.13;;;13.90;99.90;;;14.29;93.46;101370.38;5089411;28;20240;-73
2021/09/04 05:44:18;;;;;;;22.70;10.50;;;13.90;99.90;;;14.30;93.24;101374.72;5092467;28;20683;-74
2021/09/04 05:46:45;;;;;;;27.63;10.98;;;14.00;99.90;;;14.35;93.18;101375.38;5090677;28;20191;-75
2021/09/04 05:49:12;;;;;;;28.00;11.25;;;14.00;99.90;;;14.36;92.94;101373.59;5090305;28;20683;-74
2021/09/04 05:51:38;;;;;;;23.85;10.07;;;14.00;99.90;;;14.34;93.20;101376.31;5090802;28;20211;-74
2021/09/04 05:54:05;;;;;;;22.58;9.57;;;14.00;99.90;;;14.32;93.17;101379.91;5088485;28;20191;-75
2021/09/04 05:56:32;;;;;;;24.00;10.50;;;14.00;99.90;;;14.28;93.25;101365.19;5082747;28;20187;-75
2021/09/04 05:58:58;;;;;;;25.30;10.55;;;14.00;99.90;;;14.26;93.18;101378.41;5092174;28;20262;-74
2021/09/04 06:01:27;;;;;;;23.65;10.05;;;14.00;99.90;;;14.26;93.61;101372.28;5083361;28;20216;-74
2021/09/04 06:03:53;;;;;;;21.60;9.43;;;14.00;99.90;;;14.29;93.85;101380.91;5085450;28;20545;-72
2021/09/04 06:06:20;;;;;;;20.77;9.30;;;14.00;99.90;;;14.35;93.45;101385.91;5086884;28;20199;-74
2021/09/04 06:08:47;;;;;;;23.08;10.07;;;14.10;99.90;;;14.38;93.56;101388.44;5083380;28;20204;-74
2021/09/04 06:11:14;;;;;;;23.67;10.23;;;14.00;99.90;;;14.43;93.38;101391.72;5087670;28;20610;-75
2021/09/04 06:13:40;;;;;;;23.83;9.55;;;14.10;99.90;;;14.46;93.21;101375.78;5085939;28;20191;-74
2021/09/04 06:16:07;;;;;;;22.00;9.93;;;14.10;99.90;;;14.47;93.08;101382.75;5091502;28;20199;-74
2021/09/04 06:18:35;;;;;;;21.92;9.02;;;14.10;99.90;;;14.52;92.89;101386.06;5080427;28;20241;-73
2021/09/04 06:21:02;;;;;;;21.63;9.68;;;14.20;99.90;;;14.54;92.82;101384.22;5091461;28;20602;-76
2021/09/04 06:23:29;;;;;;;22.00;8.85;;;14.20;99.90;;;14.58;92.93;101385.81;5077465;28;20179;-71
2021/09/04 06:25:56;;;;;;;19.58;8.23;;;14.30;99.90;;;14.64;92.84;101385.53;5097945;28;20714;-72
2021/09/04 06:28:22;;;;;;;22.40;8.95;;;14.30;99.90;;;14.68;92.42;101380.97;5081785;28;20757;-74
2021/09/04 06:30:49;;;;;;;21.65;8.85;;;14.40;99.90;;;14.71;92.47;101373.81;5087934;28;20215;-73
2021/09/04 06:33:16;;;;;;;24.15;9.55;;;14.40;99.90;;;14.74;92.47;101376.31;5088905;28;20191;-73
2021/09/04 06:35:44;;;;;;;20.92;8.70;;;14.50;99.90;;;14.79;92.43;101382.22;5080731;28;20192;-74
2021/09/04 06:38:11;;;;;;;23.60;9.63;;;14.50;99.90;;;14.79;92.28;101376.09;5090726;28;20196;-74
2021/09/04 06:40:37;;;;;;;23.60;9.32;;;14.50;99.90;;;14.79;92.33;101379.59;5091248;28;20231;-73
2021/09/04 06:43:04;;;;;;;22.77;10.40;;;14.50;99.90;;;14.76;92.23;101385.00;5092619;28;20199;-74
2021/09/04 06:45:31;;;;;;;26.30;10.23;;;14.50;99.90;;;14.74;92.70;101392.09;5087811;28;21207;-75
2021/09/04 06:47:58;;;;;;;23.02;9.40;;;14.50;99.90;;;14.77;92.70;101386.69;5108075;28;20195;-74
2021/09/04 06:50:25;;;;;;;21.52;9.30;;;14.60;99.90;;;14.81;92.63;101392.69;5091237;28;20222;-72
2021/09/04 06:52:53;;;;;;;25.25;9.80;;;14.60;99.90;;;14.82;92.84;101399.66;5080576;28;20607;-74
2021/09/04 06:55:20;;;;;;;26.02;9.60;;;14.60;99.90;;;14.82;93.08;101399.66;5077445;28;20192;-74
2021/09/04 06:57:47;;;;;;;21.75;9.18;;;14.60;99.90;;;14.80;93.07;101391.00;5081191;28;20207;-72
2021/09/04 07:00:15;;;;;;;22.55;9.35;;;14.60;99.90;;;14.82;92.98;101402.31;5087485;28;20265;-75
2021/09/04 07:02:42;;;;;;;24.42;9.82;;;14.60;99.90;;;14.85;92.98;101404.81;5079152;28;20714;-73
2021/09/04 07:05:09;;;;;;;21.77;9.50;;;14.70;99.90;;;14.90;93.33;101408.13;5102214;28;20199;-75
2021/09/04 07:07:45;;;;;;;21.33;8.80;;;14.70;99.90;;;14.93;93.08;101402.69;5112330;28;20199;-74
2021/09/04 07:10:13;;;;;;;25.90;10.18;;;14.70;99.90;;;14.98;92.91;101414.75;5097876;28;20219;-74
2021/09/04 07:12:40;;;;;;;23.52;10.20;;;14.80;99.90;;;15.02;92.85;101420.72;5092627;28;20630;-74
2021/09/04 07:15:08;;;;;;;23.52;10.07;;;14.80;99.90;;;15.03;92.74;101410.16;5089961;28;20245;-73
2021/09/04 07:17:41;;;;;;;23.90;10.13;;;14.80;99.90;;;15.04;92.67;101425.03;5097218;28;20212;-73
2021/09/04 07:20:20;;;;;;;23.20;10.02;;;14.80;99.90;;;15.06;92.82;101420.53;5097107;28;20295;-74
2021/09/04 07:22:47;;;;;;;22.25;9.27;;;14.90;99.90;;;15.09;92.70;101417.75;5098748;28;20217;-75
2021/09/04 07:25:16;;;;;;;23.42;9.90;;;14.90;99.90;;;15.15;92.48;101416.66;5095233;28;20594;-74
2021/09/04 07:27:47;;;;;;;23.25;9.90;;;14.90;99.90;;;15.18;92.54;101420.91;5100124;28;20656;-74
2021/09/04 07:30:20;;;;;;;23.80;10.48;;;15.00;99.90;;;15.20;92.40;101419.06;5090037;28;20234;-73
2021/09/04 07:32:56;;;;;;;27.33;11.00;;;15.00;99.90;;;15.21;92.17;101413.72;5087986;28;20172;-73
2021/09/04 07:35:42;;;;;;;23.33;9.80;;;15.00;99.90;;;15.22;92.37;101414.59;5102004;28;20179;-73
2021/09/04 07:38:17;;;;;;;26.88;10.65;;;15.10;99.90;;;15.22;92.12;101423.31;5097775;28;20194;-76
2021/09/04 07:40:45;;;;;;;23.70;10.70;;;15.10;99.90;;;15.24;92.31;101418.84;5101603;28;20211;-75
2021/09/04 07:43:13;;;;;;;24.23;10.27;;;15.10;99.90;;;15.24;91.99;101415.38;5092812;28;20196;-74
2021/09/04 07:45:42;;;;;;;23.38;10.38;;;15.10;99.90;;;15.25;92.25;101414.44;5090269;28;20222;-75
2021/09/04 07:48:09;;;;;;;22.60;10.15;;;15.10;99.90;;;15.30;92.20;101415.09;5096409;28;20596;-74
2021/09/04 07:50:36;;;;;;;24.33;9.52;;;15.20;99.90;;;15.37;92.21;101413.88;5094092;28;20220;-74
2021/09/04 07:53:06;;;;;;;22.83;9.50;;;15.30;99.90;;;15.43;91.84;101408.34;5100044;28;20192;-74
2021/09/04 07:55:35;;;;;;;22.45;9.05;;;15.30;99.90;;;15.45;91.79;101422.31;5098859;28;20244;-73
2021/09/04 08:00:47;;;;;;;20.02;7.78;;;15.40;99.90;;;15.58;91.54;101434.03;5089884;28;20222;-76
2021/09/04 08:03:18;;;;;;;22.73;8.90;;;15.40;99.90;;;15.55;91.44;101427.13;5095365;28;20223;-74
2021/09/04 08:05:48;;;;;;;21.00;9.27;;;15.40;99.90;;;15.57;91.48;101437.59;5100966;28;20219;-74
2021/09/04 08:08:18;;;;;;;22.75;9.05;;;15.40;99.90;;;15.63;91.38;101439.94;5098852;28;20652;-76
2021/09/04 08:10:45;;;;;;;23.60;9.45;;;15.50;99.90;;;15.69;91.46;101444.94;5094352;28;20218;-75
2021/09/04 08:13:19;;;;;;;26.35;9.70;;;15.50;99.90;;;15.73;90.87;101438.56;5091151;28;20221;-74
2021/09/04 08:18:45;;;;;;;21.55;8.55;;;15.70;99.90;;;15.79;90.81;101446.22;5143225;23;20235;-76
2021/09/04 08:21:14;;;;;;;22.10;8.68;;;15.70;99.90;;;15.89;90.79;101447.50;4965911;28;20223;-74
2021/09/04 08:23:45;;;;;;;25.23;9.48;;;15.80;99.90;;;15.91;90.68;101457.03;4981608;28;20182;-74
2021/09/04 08:26:15;;;;;;;24.52;9.20;;;15.80;99.90;;;15.92;90.58;101450.00;4978960;28;20556;-74
2021/09/04 08:28:43;;;;;;;21.85;8.68;;;15.80;99.90;;;15.99;90.64;101454.06;4970288;28;20203;-75
2021/09/04 08:31:10;;;;;;;23.05;8.82;;;15.90;99.90;;;16.06;90.38;101453.66;4974046;28;20438;-75
2021/09/04 08:33:43;;;;;;;24.48;9.60;;;16.00;99.90;;;16.13;90.12;101447.16;4985034;28;20191;-73
2021/09/04 08:36:13;;;;;;;21.33;7.90;;;16.10;99.90;;;16.20;89.88;101453.00;4973410;28;20247;-74
2021/09/04 08:38:40;;;;;;;22.17;8.60;;;16.20;99.90;;;16.21;89.57;101449.41;4988202;28;20207;-74
2021/09/04 08:41:08;;;;;;;23.77;8.85;;;16.20;99.90;;;16.23;89.52;101453.72;4993591;28;20266;-72
2021/09/04 08:43:35;;;;;;;25.30;9.50;;;16.20;99.90;;;16.22;89.53;101452.03;4978399;28;20250;-73
2021/09/04 08:46:03;;;;;;;23.92;9.88;;;16.20;99.90;;;16.24;89.71;101451.94;4974190;28;20547;-76
2021/09/04 08:48:33;;;;;;;22.73;9.25;;;16.20;99.90;;;16.28;89.17;101451.69;4974583;28;20206;-71
2021/09/04 08:50:59;;;;;;;20.85;9.57;;;16.20;99.90;;;16.33;89.32;101448.81;4969525;28;20219;-74
2021/09/04 08:53:26;;;;;;;21.40;8.77;;;16.30;99.90;;;16.33;89.35;101451.47;4976813;28;20214;-74
2021/09/04 08:58:43;;;;;;;23.08;9.48;;;16.30;99.90;;;16.34;89.14;101458.47;4289151;26;20212;-72
2021/09/04 09:01:31;;;;;;;21.52;9.68;;;16.30;99.90;;;16.33;89.21;101466.50;5012623;28;20214;-75
2021/09/04 09:04:10;;;;;;;24.00;10.00;;;16.30;99.90;;;16.30;89.55;101462.19;5004340;28;20213;-73
2021/09/04 09:09:21;;;;;;;25.33;10.70;;;16.30;99.90;;;16.36;89.47;101466.34;5004993;28;20191;-74
2021/09/04 09:11:51;;;;;;;23.85;9.98;;;16.30;99.90;;;16.36;89.25;101464.53;5006147;28;20215;-72
2021/09/04 09:14:33;;;;;;;22.58;9.93;;;16.30;99.90;;;16.37;89.15;101468.03;4995903;28;20203;-74
2021/09/04 09:17:03;;;;;;;22.85;10.02;;;16.30;99.90;;;16.33;89.10;101467.31;5005488;28;20699;-73
2021/09/04 09:19:42;;;;;;;25.80;9.82;;;16.30;99.90;;;16.30;89.35;101473.63;5005023;28;20214;-73
2021/09/04 09:22:17;;;;;;;26.13;9.52;;;16.20;99.90;;;16.28;89.67;101482.53;4987760;28;20210;-74
2021/09/04 09:24:48;;;;;;;29.30;11.00;;;16.20;99.90;;;16.26;89.90;101472.06;5000874;28;20183;-74
2021/09/04 09:27:17;;;;;;;22.67;9.90;;;16.20;99.90;;;16.29;89.50;101477.19;5004160;28;20909;-74
2021/09/04 09:30:03;;;;;;;27.33;10.18;;;16.20;99.90;;;16.34;89.90;101475.16;5007345;28;20207;-73
2021/09/04 09:35:31;;;;;;;22.42;9.45;;;16.30;99.90;;;16.35;89.58;101473.38;5445279;22;20297;-74
2021/09/04 09:38:01;;;;;;;29.80;9.73;;;16.30;99.90;;;16.33;89.70;101463.84;5000466;28;20196;-76
2021/09/04 09:40:31;;;;;;;22.88;9.82;;;16.30;99.90;;;16.32;89.69;101476.19;4979708;28;20219;-74
2021/09/04 09:42:57;;;;;;;24.75;8.88;;;16.30;99.90;;;16.33;89.67;101471.78;4962168;28;20189;-75
2021/09/04 09:45:41;;;;;;;22.40;8.80;;;16.30;99.90;;;16.37;89.64;101476.81;4958609;28;20203;-75
2021/09/04 09:48:07;;;;;;;23.38;8.20;;;16.30;99.90;;;16.41;89.45;101475.72;5185535;23;20186;-74
2021/09/04 09:50:45;;;;;;;24.58;8.95;;;16.30;99.90;;;16.46;89.69;101480.84;5014158;28;20223;-74
2021/09/04 09:53:14;;;;;;;20.48;9.10;;;16.30;99.90;;;16.50;89.39;101485.00;5006013;28;20221;-74
2021/09/04 09:55:48;;;;;;;25.67;8.43;;;16.40;99.90;;;16.50;89.35;101480.59;5005354;28;20258;-75
2021/09/04 09:58:17;;;;;;;24.23;8.80;;;16.40;99.90;;;16.51;89.14;101477.00;5002007;28;20187;-75
2021/09/04 10:00:47;;;;;;;19.75;8.73;;;16.40;99.90;;;16.55;89.05;101488.28;5016870;28;20216;-76
2021/09/04 10:03:21;;;;;;;24.38;9.15;;;16.50;99.90;;;16.57;88.88;101481.16;5003018;28;20198;-76
2021/09/04 10:05:51;;;;;;;23.63;10.15;;;16.50;99.90;;;16.57;88.84;101483.78;4999595;28;20198;-75
2021/09/04 10:08:19;;;;;;;24.52;9.10;;;16.50;99.90;;;16.59;88.57;101474.88;5008221;28;20275;-74
2021/09/04 10:10:47;;;;;;;27.15;9.43;;;16.50;99.90;;;16.60;88.93;101481.84;4990408;28;20219;-74
2021/09/04 10:13:40;;;;;;;23.90;10.07;;;16.50;99.90;;;16.64;88.55;101477.28;4995732;28;20663;-75
2021/09/04 10:16:24;;;;;;;23.63;9.80;;;16.60;99.90;;;16.66;88.60;101480.69;5001447;28;20205;-73
2021/09/04 10:18:52;;;;;;;23.20;9.55;;;16.60;99.90;;;16.64;88.56;101486.06;4999087;28;20238;-72
2021/09/04 10:21:20;;;;;;;22.17;8.48;;;16.60;99.90;;;16.59;88.79;101489.84;4998450;28;20213;-72
2021/09/04 10:23:51;;;;;;;23.67;8.82;;;16.50;99.90;;;16.58;88.93;101486.34;4998405;28;20190;-73